Terminal Aerodrome Forecast
Issued by NWS

Home | Current Version | Previous Version | Text Only | Print | Product List | Glossary On
Versions: 1 2 3 4 5 6 7 8 9 10 11 12 13 14 15 16 17 18
000
FTUS46 KLOX 251414 AAA
TAFWJF
TAF AMD
KWJF 251414Z 2514/2612 24020G30KT P6SM SKC
     FM251900 23028G38KT 6SM BLDU SKC
     FM260300 23020G30KT P6SM SKC
     FM260800 24018KT P6SM SKC=

USA.gov is the U.S. government's official web portal to all federal, state and local government web resources and services.